sensor_id;sensor_type;location;lat;lon;timestamp;P1;durP1;ratioP1;P2;durP2;ratioP2
52858;SDS011;38721;53.098;6.596;2023-02-04T00:02:22;43.28;;;8.13;;
52858;SDS011;38721;53.098;6.596;2023-02-04T00:04:48;41.35;;;6.00;;
52858;SDS011;38721;53.098;6.596;2023-02-04T00:07:13;31.63;;;6.15;;
52858;SDS011;38721;53.098;6.596;2023-02-04T00:09:42;31.27;;;5.93;;
52858;SDS011;38721;53.098;6.596;2023-02-04T00:12:11;32.75;;;5.75;;
52858;SDS011;38721;53.098;6.596;2023-02-04T00:14:40;34.47;;;5.85;;
52858;SDS011;38721;53.098;6.596;2023-02-04T00:17:05;40.63;;;7.28;;
52858;SDS011;38721;53.098;6.596;2023-02-04T00:19:37;36.20;;;6.45;;
52858;SDS011;38721;53.098;6.596;2023-02-04T00:22:04;36.28;;;6.00;;
52858;SDS011;38721;53.098;6.596;2023-02-04T00:24:31;40.17;;;6.65;;
52858;SDS011;38721;53.098;6.596;2023-02-04T00:26:58;36.97;;;6.40;;
52858;SDS011;38721;53.098;6.596;2023-02-04T00:29:24;36.70;;;8.63;;
52858;SDS011;38721;53.098;6.596;2023-02-04T00:31:50;30.35;;;6.00;;
52858;SDS011;38721;53.098;6.596;2023-02-04T00:34:15;36.65;;;6.32;;
52858;SDS011;38721;53.098;6.596;2023-02-04T00:36:45;37.17;;;6.22;;
52858;SDS011;38721;53.098;6.596;2023-02-04T00:39:11;36.95;;;6.15;;
52858;SDS011;38721;53.098;6.596;2023-02-04T00:41:37;35.03;;;5.95;;
52858;SDS011;38721;53.098;6.596;2023-02-04T00:44:03;36.17;;;6.32;;
52858;SDS011;38721;53.098;6.596;2023-02-04T00:46:29;39.78;;;6.43;;
52858;SDS011;38721;53.098;6.596;2023-02-04T00:48:55;33.55;;;6.03;;
52858;SDS011;38721;53.098;6.596;2023-02-04T00:51:20;42.22;;;6.53;;
52858;SDS011;38721;53.098;6.596;2023-02-04T00:53:49;42.75;;;7.20;;
52858;SDS011;38721;53.098;6.596;2023-02-04T00:56:15;38.42;;;6.22;;
52858;SDS011;38721;53.098;6.596;2023-02-04T00:58:40;35.38;;;5.88;;
52858;SDS011;38721;53.098;6.596;2023-02-04T01:01:06;31.98;;;5.80;;
52858;SDS011;38721;53.098;6.596;2023-02-04T01:03:32;43.13;;;7.35;;
52858;SDS011;38721;53.098;6.596;2023-02-04T01:05:57;38.75;;;6.90;;
52858;SDS011;38721;53.098;6.596;2023-02-04T01:08:23;39.03;;;6.95;;
52858;SDS011;38721;53.098;6.596;2023-02-04T01:10:49;39.22;;;6.25;;
52858;SDS011;38721;53.098;6.596;2023-02-04T01:13:17;41.42;;;6.38;;
52858;SDS011;38721;53.098;6.596;2023-02-04T01:15:43;36.78;;;6.28;;
52858;SDS011;38721;53.098;6.596;2023-02-04T01:18:08;44.75;;;6.50;;
52858;SDS011;38721;53.098;6.596;2023-02-04T01:20:34;42.45;;;6.90;;
52858;SDS011;38721;53.098;6.596;2023-02-04T01:23:00;42.13;;;6.57;;
52858;SDS011;38721;53.098;6.596;2023-02-04T01:25:25;36.03;;;6.63;;
52858;SDS011;38721;53.098;6.596;2023-02-04T01:27:51;42.42;;;7.50;;
52858;SDS011;38721;53.098;6.596;2023-02-04T01:30:17;36.88;;;5.60;;
52858;SDS011;38721;53.098;6.596;2023-02-04T01:32:43;32.53;;;6.03;;
52858;SDS011;38721;53.098;6.596;2023-02-04T01:35:09;43.42;;;6.78;;
52858;SDS011;38721;53.098;6.596;2023-02-04T01:37:35;36.60;;;6.18;;
52858;SDS011;38721;53.098;6.596;2023-02-04T01:40:00;32.90;;;6.47;;
52858;SDS011;38721;53.098;6.596;2023-02-04T01:42:26;36.65;;;6.05;;
52858;SDS011;38721;53.098;6.596;2023-02-04T01:44:52;33.35;;;6.53;;
52858;SDS011;38721;53.098;6.596;2023-02-04T01:47:18;30.67;;;6.07;;
52858;SDS011;38721;53.098;6.596;2023-02-04T01:49:44;39.20;;;6.10;;
52858;SDS011;38721;53.098;6.596;2023-02-04T01:52:15;35.50;;;5.90;;
52858;SDS011;38721;53.098;6.596;2023-02-04T01:54:42;33.22;;;5.55;;
52858;SDS011;38721;53.098;6.596;2023-02-04T01:57:08;30.98;;;6.18;;
52858;SDS011;38721;53.098;6.596;2023-02-04T01:59:43;31.02;;;5.15;;
52858;SDS011;38721;53.098;6.596;2023-02-04T02:02:35;39.15;;;6.28;;
52858;SDS011;38721;53.098;6.596;2023-02-04T02:05:07;43.28;;;6.18;;
52858;SDS011;38721;53.098;6.596;2023-02-04T02:07:40;40.45;;;6.85;;
52858;SDS011;38721;53.098;6.596;2023-02-04T02:10:07;48.10;;;7.32;;
52858;SDS011;38721;53.098;6.596;2023-02-04T02:12:35;38.90;;;5.35;;
52858;SDS011;38721;53.098;6.596;2023-02-04T02:15:01;42.90;;;6.45;;
52858;SDS011;38721;53.098;6.596;2023-02-04T02:17:26;47.03;;;5.97;;
52858;SDS011;38721;53.098;6.596;2023-02-04T02:19:53;49.55;;;6.88;;
52858;SDS011;38721;53.098;6.596;2023-02-04T02:22:29;35.80;;;5.43;;
52858;SDS011;38721;53.098;6.596;2023-02-04T02:24:59;51.17;;;8.13;;
52858;SDS011;38721;53.098;6.596;2023-02-04T02:27:25;42.50;;;6.05;;
52858;SDS011;38721;53.098;6.596;2023-02-04T02:29:51;40.50;;;7.20;;
52858;SDS011;38721;53.098;6.596;2023-02-04T02:32:17;43.33;;;6.55;;
52858;SDS011;38721;53.098;6.596;2023-02-04T02:34:43;54.88;;;7.75;;
52858;SDS011;38721;53.098;6.596;2023-02-04T02:37:10;52.33;;;6.90;;
52858;SDS011;38721;53.098;6.596;2023-02-04T02:39:37;44.40;;;7.00;;
52858;SDS011;38721;53.098;6.596;2023-02-04T02:42:05;38.08;;;6.50;;
52858;SDS011;38721;53.098;6.596;2023-02-04T02:44:31;42.15;;;6.68;;
52858;SDS011;38721;53.098;6.596;2023-02-04T02:47:00;48.85;;;7.85;;
52858;SDS011;38721;53.098;6.596;2023-02-04T02:49:26;47.20;;;6.85;;
52858;SDS011;38721;53.098;6.596;2023-02-04T02:51:55;35.97;;;6.97;;
52858;SDS011;38721;53.098;6.596;2023-02-04T02:54:22;48.55;;;6.75;;
52858;SDS011;38721;53.098;6.596;2023-02-04T02:56:50;45.08;;;8.40;;
52858;SDS011;38721;53.098;6.596;2023-02-04T02:59:16;41.65;;;7.45;;
52858;SDS011;38721;53.098;6.596;2023-02-04T03:01:42;39.88;;;6.72;;
52858;SDS011;38721;53.098;6.596;2023-02-04T03:04:10;40.40;;;6.47;;
52858;SDS011;38721;53.098;6.596;2023-02-04T03:06:36;40.00;;;6.75;;
52858;SDS011;38721;53.098;6.596;2023-02-04T03:09:02;48.78;;;6.68;;
52858;SDS011;38721;53.098;6.596;2023-02-04T03:11:28;43.78;;;7.45;;
52858;SDS011;38721;53.098;6.596;2023-02-04T03:13:56;40.75;;;6.43;;
52858;SDS011;38721;53.098;6.596;2023-02-04T03:16:29;37.28;;;6.53;;
52858;SDS011;38721;53.098;6.596;2023-02-04T03:18:58;46.28;;;7.85;;
52858;SDS011;38721;53.098;6.596;2023-02-04T03:21:24;48.05;;;6.47;;
52858;SDS011;38721;53.098;6.596;2023-02-04T03:23:51;41.13;;;7.03;;
52858;SDS011;38721;53.098;6.596;2023-02-04T03:26:21;45.15;;;6.80;;
52858;SDS011;38721;53.098;6.596;2023-02-04T03:28:50;43.35;;;6.47;;
52858;SDS011;38721;53.098;6.596;2023-02-04T03:31:17;45.40;;;5.70;;
52858;SDS011;38721;53.098;6.596;2023-02-04T03:33:43;49.70;;;10.05;;
52858;SDS011;38721;53.098;6.596;2023-02-04T03:36:09;55.67;;;7.25;;
52858;SDS011;38721;53.098;6.596;2023-02-04T03:38:35;41.83;;;6.32;;
52858;SDS011;38721;53.098;6.596;2023-02-04T03:41:01;42.63;;;8.25;;
52858;SDS011;38721;53.098;6.596;2023-02-04T03:43:27;40.30;;;8.05;;
52858;SDS011;38721;53.098;6.596;2023-02-04T03:45:53;44.15;;;7.13;;
52858;SDS011;38721;53.098;6.596;2023-02-04T03:48:18;39.28;;;5.82;;
52858;SDS011;38721;53.098;6.596;2023-02-04T03:50:44;39.67;;;6.45;;
52858;SDS011;38721;53.098;6.596;2023-02-04T03:53:10;39.72;;;6.85;;
52858;SDS011;38721;53.098;6.596;2023-02-04T03:55:36;31.67;;;7.13;;
52858;SDS011;38721;53.098;6.596;2023-02-04T03:58:02;35.72;;;5.70;;
52858;SDS011;38721;53.098;6.596;2023-02-04T04:00:28;35.20;;;6.30;;
52858;SDS011;38721;53.098;6.596;2023-02-04T04:02:53;36.80;;;6.35;;
52858;SDS011;38721;53.098;6.596;2023-02-04T04:05:21;40.10;;;5.90;;
52858;SDS011;38721;53.098;6.596;2023-02-04T04:07:47;40.08;;;6.55;;
52858;SDS011;38721;53.098;6.596;2023-02-04T04:10:13;39.58;;;6.43;;
52858;SDS011;38721;53.098;6.596;2023-02-04T04:12:39;31.63;;;5.75;;
52858;SDS011;38721;53.098;6.596;2023-02-04T04:15:05;36.83;;;5.82;;
52858;SDS011;38721;53.098;6.596;2023-02-04T04:17:31;33.85;;;5.20;;
52858;SDS011;38721;53.098;6.596;2023-02-04T04:19:57;38.22;;;5.70;;
52858;SDS011;38721;53.098;6.596;2023-02-04T04:22:23;25.55;;;5.03;;
52858;SDS011;38721;53.098;6.596;2023-02-04T04:24:48;41.15;;;6.43;;
52858;SDS011;38721;53.098;6.596;2023-02-04T04:27:14;29.95;;;5.05;;
52858;SDS011;38721;53.098;6.596;2023-02-04T04:29:40;29.85;;;5.88;;
52858;SDS011;38721;53.098;6.596;2023-02-04T04:32:06;27.08;;;5.60;;
52858;SDS011;38721;53.098;6.596;2023-02-04T04:34:34;28.40;;;6.10;;
52858;SDS011;38721;53.098;6.596;2023-02-04T04:37:00;33.25;;;5.85;;
52858;SDS011;38721;53.098;6.596;2023-02-04T04:39:26;36.40;;;6.35;;
52858;SDS011;38721;53.098;6.596;2023-02-04T04:41:51;31.90;;;5.35;;
52858;SDS011;38721;53.098;6.596;2023-02-04T04:44:17;33.38;;;5.22;;
52858;SDS011;38721;53.098;6.596;2023-02-04T04:46:43;35.85;;;5.47;;
52858;SDS011;38721;53.098;6.596;2023-02-04T04:49:08;26.35;;;5.07;;
52858;SDS011;38721;53.098;6.596;2023-02-04T04:51:34;31.30;;;5.75;;
52858;SDS011;38721;53.098;6.596;2023-02-04T04:54:00;36.15;;;6.10;;
52858;SDS011;38721;53.098;6.596;2023-02-04T04:56:28;33.13;;;5.93;;
52858;SDS011;38721;53.098;6.596;2023-02-04T04:58:54;30.83;;;5.38;;
52858;SDS011;38721;53.098;6.596;2023-02-04T05:01:20;26.75;;;5.18;;
52858;SDS011;38721;53.098;6.596;2023-02-04T05:03:46;32.65;;;6.00;;
52858;SDS011;38721;53.098;6.596;2023-02-04T05:06:12;29.15;;;5.10;;
52858;SDS011;38721;53.098;6.596;2023-02-04T05:08:38;30.27;;;5.75;;
52858;SDS011;38721;53.098;6.596;2023-02-04T05:11:03;27.88;;;5.72;;
52858;SDS011;38721;53.098;6.596;2023-02-04T05:13:32;30.42;;;4.72;;
52858;SDS011;38721;53.098;6.596;2023-02-04T05:15:58;34.65;;;5.18;;
52858;SDS011;38721;53.098;6.596;2023-02-04T05:18:24;30.85;;;5.68;;
52858;SDS011;38721;53.098;6.596;2023-02-04T05:20:49;25.98;;;4.47;;
52858;SDS011;38721;53.098;6.596;2023-02-04T05:23:15;23.30;;;4.50;;
52858;SDS011;38721;53.098;6.596;2023-02-04T05:25:41;21.55;;;4.05;;
52858;SDS011;38721;53.098;6.596;2023-02-04T05:28:07;24.10;;;5.13;;
52858;SDS011;38721;53.098;6.596;2023-02-04T05:30:32;25.85;;;4.55;;
52858;SDS011;38721;53.098;6.596;2023-02-04T05:32:58;37.05;;;6.50;;
52858;SDS011;38721;53.098;6.596;2023-02-04T05:35:24;29.77;;;5.07;;
52858;SDS011;38721;53.098;6.596;2023-02-04T05:37:50;25.70;;;4.30;;
52858;SDS011;38721;53.098;6.596;2023-02-04T05:40:16;29.40;;;5.05;;
52858;SDS011;38721;53.098;6.596;2023-02-04T05:42:41;23.33;;;4.50;;
52858;SDS011;38721;53.098;6.596;2023-02-04T05:45:12;31.10;;;4.28;;
52858;SDS011;38721;53.098;6.596;2023-02-04T05:47:39;27.65;;;5.03;;
52858;SDS011;38721;53.098;6.596;2023-02-04T05:50:05;24.67;;;4.43;;
52858;SDS011;38721;53.098;6.596;2023-02-04T05:52:32;23.02;;;3.63;;
52858;SDS011;38721;53.098;6.596;2023-02-04T05:54:57;25.65;;;4.22;;
52858;SDS011;38721;53.098;6.596;2023-02-04T05:57:23;22.23;;;3.65;;
52858;SDS011;38721;53.098;6.596;2023-02-04T05:59:49;29.05;;;4.80;;
52858;SDS011;38721;53.098;6.596;2023-02-04T06:02:15;27.90;;;4.18;;
52858;SDS011;38721;53.098;6.596;2023-02-04T06:04:40;21.17;;;4.07;;
52858;SDS011;38721;53.098;6.596;2023-02-04T06:07:09;22.92;;;3.97;;
52858;SDS011;38721;53.098;6.596;2023-02-04T06:09:35;22.50;;;3.30;;
52858;SDS011;38721;53.098;6.596;2023-02-04T06:12:00;20.77;;;4.85;;
52858;SDS011;38721;53.098;6.596;2023-02-04T06:14:26;17.58;;;3.20;;
52858;SDS011;38721;53.098;6.596;2023-02-04T06:16:52;18.42;;;4.05;;
52858;SDS011;38721;53.098;6.596;2023-02-04T06:19:18;31.02;;;4.65;;
52858;SDS011;38721;53.098;6.596;2023-02-04T06:21:43;19.63;;;4.00;;
52858;SDS011;38721;53.098;6.596;2023-02-04T06:24:09;16.55;;;3.25;;
52858;SDS011;38721;53.098;6.596;2023-02-04T06:26:38;17.58;;;3.20;;
52858;SDS011;38721;53.098;6.596;2023-02-04T06:29:03;17.02;;;3.55;;
52858;SDS011;38721;53.098;6.596;2023-02-04T06:31:29;16.75;;;3.47;;
52858;SDS011;38721;53.098;6.596;2023-02-04T06:33:55;17.30;;;3.17;;
52858;SDS011;38721;53.098;6.596;2023-02-04T06:36:21;21.10;;;3.75;;
52858;SDS011;38721;53.098;6.596;2023-02-04T06:38:46;20.13;;;3.60;;
52858;SDS011;38721;53.098;6.596;2023-02-04T06:41:12;26.60;;;3.78;;
52858;SDS011;38721;53.098;6.596;2023-02-04T06:43:41;23.20;;;3.35;;
52858;SDS011;38721;53.098;6.596;2023-02-04T06:46:06;19.80;;;2.92;;
52858;SDS011;38721;53.098;6.596;2023-02-04T06:48:32;22.42;;;3.38;;
52858;SDS011;38721;53.098;6.596;2023-02-04T06:50:58;18.40;;;3.45;;
52858;SDS011;38721;53.098;6.596;2023-02-04T06:53:23;20.63;;;3.25;;
52858;SDS011;38721;53.098;6.596;2023-02-04T06:55:49;16.98;;;3.58;;
52858;SDS011;38721;53.098;6.596;2023-02-04T06:58:16;17.17;;;3.25;;
52858;SDS011;38721;53.098;6.596;2023-02-04T07:00:45;18.85;;;4.25;;
52858;SDS011;38721;53.098;6.596;2023-02-04T07:03:11;21.60;;;3.70;;
52858;SDS011;38721;53.098;6.596;2023-02-04T07:05:37;19.00;;;3.67;;
52858;SDS011;38721;53.098;6.596;2023-02-04T07:08:02;22.98;;;4.00;;
52858;SDS011;38721;53.098;6.596;2023-02-04T07:10:28;18.85;;;4.32;;
52858;SDS011;38721;53.098;6.596;2023-02-04T07:12:54;20.23;;;3.60;;
52858;SDS011;38721;53.098;6.596;2023-02-04T07:15:19;17.48;;;3.35;;
52858;SDS011;38721;53.098;6.596;2023-02-04T07:17:46;18.30;;;3.08;;
52858;SDS011;38721;53.098;6.596;2023-02-04T07:20:11;24.45;;;3.50;;
52858;SDS011;38721;53.098;6.596;2023-02-04T07:22:37;21.00;;;3.58;;
52858;SDS011;38721;53.098;6.596;2023-02-04T07:25:03;13.48;;;3.67;;
52858;SDS011;38721;53.098;6.596;2023-02-04T07:27:29;18.50;;;3.97;;
52858;SDS011;38721;53.098;6.596;2023-02-04T07:29:54;18.55;;;4.18;;
52858;SDS011;38721;53.098;6.596;2023-02-04T07:32:20;19.42;;;3.80;;
52858;SDS011;38721;53.098;6.596;2023-02-04T07:34:46;15.15;;;2.80;;
52858;SDS011;38721;53.098;6.596;2023-02-04T07:37:12;15.55;;;3.40;;
52858;SDS011;38721;53.098;6.596;2023-02-04T07:39:39;23.30;;;2.85;;
52858;SDS011;38721;53.098;6.596;2023-02-04T07:42:05;9.88;;;2.28;;
52858;SDS011;38721;53.098;6.596;2023-02-04T07:44:31;12.18;;;2.78;;
52858;SDS011;38721;53.098;6.596;2023-02-04T07:46:56;13.50;;;2.40;;
52858;SDS011;38721;53.098;6.596;2023-02-04T07:49:22;17.27;;;2.97;;
52858;SDS011;38721;53.098;6.596;2023-02-04T07:51:48;17.15;;;3.10;;
52858;SDS011;38721;53.098;6.596;2023-02-04T07:54:13;13.70;;;2.85;;
52858;SDS011;38721;53.098;6.596;2023-02-04T07:56:39;10.13;;;2.58;;
52858;SDS011;38721;53.098;6.596;2023-02-04T07:59:08;12.35;;;2.30;;
52858;SDS011;38721;53.098;6.596;2023-02-04T08:01:33;12.30;;;2.72;;
52858;SDS011;38721;53.098;6.596;2023-02-04T08:03:59;11.00;;;2.38;;
52858;SDS011;38721;53.098;6.596;2023-02-04T08:06:25;11.38;;;2.45;;
52858;SDS011;38721;53.098;6.596;2023-02-04T08:08:51;14.32;;;2.40;;
52858;SDS011;38721;53.098;6.596;2023-02-04T08:11:17;14.15;;;2.40;;
52858;SDS011;38721;53.098;6.596;2023-02-04T08:13:43;12.35;;;2.28;;
52858;SDS011;38721;53.098;6.596;2023-02-04T08:16:08;20.58;;;3.25;;
52858;SDS011;38721;53.098;6.596;2023-02-04T08:18:34;11.05;;;2.72;;
52858;SDS011;38721;53.098;6.596;2023-02-04T08:21:00;10.32;;;2.45;;
52858;SDS011;38721;53.098;6.596;2023-02-04T08:23:27;11.82;;;2.67;;
52858;SDS011;38721;53.098;6.596;2023-02-04T08:25:52;14.05;;;2.72;;
52858;SDS011;38721;53.098;6.596;2023-02-04T08:28:18;14.90;;;3.42;;
52858;SDS011;38721;53.098;6.596;2023-02-04T08:30:44;20.75;;;3.03;;
52858;SDS011;38721;53.098;6.596;2023-02-04T08:33:10;14.02;;;2.60;;
52858;SDS011;38721;53.098;6.596;2023-02-04T08:35:35;8.98;;;2.55;;
52858;SDS011;38721;53.098;6.596;2023-02-04T08:38:01;16.02;;;2.63;;
52858;SDS011;38721;53.098;6.596;2023-02-04T08:40:27;9.88;;;2.60;;
52858;SDS011;38721;53.098;6.596;2023-02-04T08:42:53;7.97;;;2.20;;
52858;SDS011;38721;53.098;6.596;2023-02-04T08:45:19;13.13;;;2.97;;
52858;SDS011;38721;53.098;6.596;2023-02-04T08:47:48;12.70;;;2.33;;
52858;SDS011;38721;53.098;6.596;2023-02-04T08:50:14;10.75;;;2.60;;
52858;SDS011;38721;53.098;6.596;2023-02-04T08:52:39;9.27;;;2.38;;
52858;SDS011;38721;53.098;6.596;2023-02-04T08:55:08;10.57;;;2.47;;
52858;SDS011;38721;53.098;6.596;2023-02-04T08:57:34;11.85;;;2.40;;
52858;SDS011;38721;53.098;6.596;2023-02-04T09:00:03;10.95;;;2.20;;
52858;SDS011;38721;53.098;6.596;2023-02-04T09:02:29;11.52;;;2.78;;
52858;SDS011;38721;53.098;6.596;2023-02-04T09:04:54;11.00;;;2.78;;
52858;SDS011;38721;53.098;6.596;2023-02-04T09:07:20;13.35;;;2.45;;
52858;SDS011;38721;53.098;6.596;2023-02-04T09:09:46;11.65;;;2.53;;
52858;SDS011;38721;53.098;6.596;2023-02-04T09:12:13;8.48;;;2.65;;
52858;SDS011;38721;53.098;6.596;2023-02-04T09:14:39;13.13;;;2.50;;
52858;SDS011;38721;53.098;6.596;2023-02-04T09:17:04;11.40;;;2.58;;
52858;SDS011;38721;53.098;6.596;2023-02-04T09:19:31;11.35;;;2.35;;
52858;SDS011;38721;53.098;6.596;2023-02-04T09:21:57;13.88;;;2.75;;
52858;SDS011;38721;53.098;6.596;2023-02-04T09:24:22;10.38;;;2.80;;
52858;SDS011;38721;53.098;6.596;2023-02-04T09:26:48;13.75;;;2.55;;
52858;SDS011;38721;53.098;6.596;2023-02-04T09:29:14;9.13;;;2.35;;
52858;SDS011;38721;53.098;6.596;2023-02-04T09:31:40;11.10;;;2.38;;
52858;SDS011;38721;53.098;6.596;2023-02-04T09:34:08;10.93;;;2.92;;
52858;SDS011;38721;53.098;6.596;2023-02-04T09:36:33;11.43;;;2.47;;
52858;SDS011;38721;53.098;6.596;2023-02-04T09:39:03;16.77;;;2.95;;
52858;SDS011;38721;53.098;6.596;2023-02-04T09:41:30;9.55;;;2.72;;
52858;SDS011;38721;53.098;6.596;2023-02-04T09:43:59;10.52;;;2.40;;
52858;SDS011;38721;53.098;6.596;2023-02-04T09:46:25;13.27;;;2.75;;
52858;SDS011;38721;53.098;6.596;2023-02-04T09:48:53;11.13;;;2.90;;
52858;SDS011;38721;53.098;6.596;2023-02-04T09:51:21;8.00;;;2.40;;
52858;SDS011;38721;53.098;6.596;2023-02-04T09:53:50;16.45;;;3.30;;
52858;SDS011;38721;53.098;6.596;2023-02-04T09:56:18;8.73;;;2.40;;
52858;SDS011;38721;53.098;6.596;2023-02-04T09:58:44;7.78;;;1.88;;
52858;SDS011;38721;53.098;6.596;2023-02-04T10:01:13;10.82;;;3.22;;
52858;SDS011;38721;53.098;6.596;2023-02-04T10:03:41;15.13;;;2.60;;
52858;SDS011;38721;53.098;6.596;2023-02-04T10:06:18;7.65;;;2.28;;
52858;SDS011;38721;53.098;6.596;2023-02-04T10:08:45;11.23;;;2.33;;
52858;SDS011;38721;53.098;6.596;2023-02-04T10:11:14;8.27;;;2.95;;
52858;SDS011;38721;53.098;6.596;2023-02-04T10:13:49;12.02;;;2.92;;
52858;SDS011;38721;53.098;6.596;2023-02-04T10:18:54;8.10;;;2.42;;
52858;SDS011;38721;53.098;6.596;2023-02-04T10:21:31;8.68;;;2.40;;
52858;SDS011;38721;53.098;6.596;2023-02-04T10:24:01;7.13;;;2.45;;
52858;SDS011;38721;53.098;6.596;2023-02-04T10:26:30;13.18;;;2.67;;
52858;SDS011;38721;53.098;6.596;2023-02-04T10:29:00;8.20;;;2.30;;
52858;SDS011;38721;53.098;6.596;2023-02-04T10:31:36;11.45;;;2.40;;
52858;SDS011;38721;53.098;6.596;2023-02-04T10:36:46;8.65;;;2.45;;
52858;SDS011;38721;53.098;6.596;2023-02-04T10:39:18;11.45;;;2.85;;
52858;SDS011;38721;53.098;6.596;2023-02-04T10:41:44;10.45;;;2.63;;
52858;SDS011;38721;53.098;6.596;2023-02-04T10:44:25;9.70;;;3.13;;
52858;SDS011;38721;53.098;6.596;2023-02-04T10:47:01;10.57;;;2.38;;
52858;SDS011;38721;53.098;6.596;2023-02-04T10:49:29;9.77;;;2.55;;
52858;SDS011;38721;53.098;6.596;2023-02-04T10:51:57;12.77;;;2.65;;
52858;SDS011;38721;53.098;6.596;2023-02-04T10:54:31;11.05;;;2.70;;
52858;SDS011;38721;53.098;6.596;2023-02-04T10:57:21;10.25;;;2.50;;
52858;SDS011;38721;53.098;6.596;2023-02-04T10:59:56;12.32;;;2.30;;
52858;SDS011;38721;53.098;6.596;2023-02-04T11:05:11;9.73;;;2.22;;
52858;SDS011;38721;53.098;6.596;2023-02-04T11:07:43;10.13;;;2.45;;
52858;SDS011;38721;53.098;6.596;2023-02-04T11:10:53;11.63;;;2.60;;
52858;SDS011;38721;53.098;6.596;2023-02-04T11:13:03;10.02;;;2.35;;
52858;SDS011;38721;53.098;6.596;2023-02-04T11:15:47;21.63;;;2.90;;
52858;SDS011;38721;53.098;6.596;2023-02-04T11:20:46;6.00;;;1.80;;
52858;SDS011;38721;53.098;6.596;2023-02-04T11:25:42;9.45;;;2.20;;
52858;SDS011;38721;53.098;6.596;2023-02-04T11:28:14;9.48;;;2.47;;
52858;SDS011;38721;53.098;6.596;2023-02-04T11:30:57;8.20;;;2.63;;
52858;SDS011;38721;53.098;6.596;2023-02-04T11:33:24;8.95;;;2.42;;
52858;SDS011;38721;53.098;6.596;2023-02-04T11:36:04;9.73;;;2.92;;
52858;SDS011;38721;53.098;6.596;2023-02-04T11:38:36;10.07;;;2.78;;
52858;SDS011;38721;53.098;6.596;2023-02-04T11:41:02;9.07;;;2.58;;
52858;SDS011;38721;53.098;6.596;2023-02-04T11:43:33;8.73;;;2.33;;
52858;SDS011;38721;53.098;6.596;2023-02-04T11:46:00;10.20;;;2.30;;
52858;SDS011;38721;53.098;6.596;2023-02-04T11:48:36;9.38;;;2.75;;
52858;SDS011;38721;53.098;6.596;2023-02-04T11:51:02;9.57;;;2.08;;
52858;SDS011;38721;53.098;6.596;2023-02-04T11:53:49;6.03;;;1.85;;
52858;SDS011;38721;53.098;6.596;2023-02-04T11:56:19;10.05;;;2.75;;
52858;SDS011;38721;53.098;6.596;2023-02-04T11:58:47;9.77;;;1.73;;
52858;SDS011;38721;53.098;6.596;2023-02-04T12:01:17;6.22;;;1.73;;
52858;SDS011;38721;53.098;6.596;2023-02-04T12:03:46;6.38;;;2.40;;
52858;SDS011;38721;53.098;6.596;2023-02-04T12:06:20;6.65;;;1.95;;
52858;SDS011;38721;53.098;6.596;2023-02-04T12:08:47;5.95;;;2.00;;
52858;SDS011;38721;53.098;6.596;2023-02-04T12:11:28;6.75;;;2.20;;
52858;SDS011;38721;53.098;6.596;2023-02-04T12:13:55;5.63;;;2.10;;
52858;SDS011;38721;53.098;6.596;2023-02-04T12:16:23;10.82;;;2.10;;
52858;SDS011;38721;53.098;6.596;2023-02-04T12:18:49;8.98;;;2.08;;
52858;SDS011;38721;53.098;6.596;2023-02-04T12:21:17;8.45;;;2.58;;
52858;SDS011;38721;53.098;6.596;2023-02-04T12:23:46;5.75;;;1.95;;
52858;SDS011;38721;53.098;6.596;2023-02-04T12:26:12;7.72;;;2.22;;
52858;SDS011;38721;53.098;6.596;2023-02-04T12:28:37;7.25;;;2.10;;
52858;SDS011;38721;53.098;6.596;2023-02-04T12:31:03;5.28;;;1.90;;
52858;SDS011;38721;53.098;6.596;2023-02-04T12:33:29;6.90;;;2.00;;
52858;SDS011;38721;53.098;6.596;2023-02-04T12:35:58;6.88;;;1.75;;
52858;SDS011;38721;53.098;6.596;2023-02-04T12:38:23;3.92;;;1.90;;
52858;SDS011;38721;53.098;6.596;2023-02-04T12:40:49;7.85;;;1.50;;
52858;SDS011;38721;53.098;6.596;2023-02-04T12:43:15;4.95;;;1.60;;
52858;SDS011;38721;53.098;6.596;2023-02-04T12:45:41;3.65;;;1.50;;
52858;SDS011;38721;53.098;6.596;2023-02-04T12:48:12;2.83;;;1.40;;
52858;SDS011;38721;53.098;6.596;2023-02-04T12:50:38;6.38;;;1.67;;
52858;SDS011;38721;53.098;6.596;2023-02-04T12:53:03;4.13;;;1.88;;
52858;SDS011;38721;53.098;6.596;2023-02-04T12:55:30;5.82;;;1.90;;
52858;SDS011;38721;53.098;6.596;2023-02-04T12:57:56;3.50;;;1.58;;
52858;SDS011;38721;53.098;6.596;2023-02-04T13:00:22;5.85;;;1.95;;
52858;SDS011;38721;53.098;6.596;2023-02-04T13:02:48;9.35;;;1.90;;
52858;SDS011;38721;53.098;6.596;2023-02-04T13:05:14;4.90;;;1.58;;
52858;SDS011;38721;53.098;6.596;2023-02-04T13:07:41;6.10;;;1.75;;
52858;SDS011;38721;53.098;6.596;2023-02-04T13:10:07;7.63;;;1.60;;
52858;SDS011;38721;53.098;6.596;2023-02-04T13:12:34;3.28;;;1.52;;
52858;SDS011;38721;53.098;6.596;2023-02-04T13:15:01;4.63;;;1.58;;
52858;SDS011;38721;53.098;6.596;2023-02-04T13:17:26;4.28;;;1.77;;
52858;SDS011;38721;53.098;6.596;2023-02-04T13:19:52;3.20;;;1.63;;
52858;SDS011;38721;53.098;6.596;2023-02-04T13:22:18;3.75;;;1.58;;
52858;SDS011;38721;53.098;6.596;2023-02-04T13:24:44;5.72;;;1.90;;
52858;SDS011;38721;53.098;6.596;2023-02-04T13:27:09;6.97;;;1.60;;
52858;SDS011;38721;53.098;6.596;2023-02-04T13:29:35;5.72;;;1.50;;
52858;SDS011;38721;53.098;6.596;2023-02-04T13:32:01;3.80;;;1.63;;
52858;SDS011;38721;53.098;6.596;2023-02-04T13:34:27;3.55;;;1.30;;
52858;SDS011;38721;53.098;6.596;2023-02-04T13:36:53;4.15;;;1.70;;
52858;SDS011;38721;53.098;6.596;2023-02-04T13:39:19;4.82;;;1.80;;
52858;SDS011;38721;53.098;6.596;2023-02-04T13:41:44;5.47;;;1.40;;
52858;SDS011;38721;53.098;6.596;2023-02-04T13:44:11;3.58;;;1.50;;
52858;SDS011;38721;53.098;6.596;2023-02-04T13:46:36;4.47;;;1.63;;
52858;SDS011;38721;53.098;6.596;2023-02-04T13:49:02;7.13;;;1.60;;
52858;SDS011;38721;53.098;6.596;2023-02-04T13:51:28;4.57;;;1.73;;
52858;SDS011;38721;53.098;6.596;2023-02-04T13:53:54;2.67;;;1.50;;
52858;SDS011;38721;53.098;6.596;2023-02-04T13:56:20;4.15;;;1.73;;
52858;SDS011;38721;53.098;6.596;2023-02-04T13:58:46;2.53;;;1.70;;
52858;SDS011;38721;53.098;6.596;2023-02-04T14:01:12;4.07;;;1.60;;
52858;SDS011;38721;53.098;6.596;2023-02-04T14:03:38;3.35;;;1.80;;
52858;SDS011;38721;53.098;6.596;2023-02-04T14:06:05;2.92;;;1.50;;
52858;SDS011;38721;53.098;6.596;2023-02-04T14:08:31;6.63;;;2.00;;
52858;SDS011;38721;53.098;6.596;2023-02-04T14:10:57;3.72;;;1.55;;
52858;SDS011;38721;53.098;6.596;2023-02-04T14:13:23;7.47;;;2.00;;
52858;SDS011;38721;53.098;6.596;2023-02-04T14:15:48;3.35;;;1.75;;
52858;SDS011;38721;53.098;6.596;2023-02-04T14:18:14;2.78;;;1.70;;
52858;SDS011;38721;53.098;6.596;2023-02-04T14:20:40;4.63;;;1.90;;
52858;SDS011;38721;53.098;6.596;2023-02-04T14:23:07;5.40;;;1.95;;
52858;SDS011;38721;53.098;6.596;2023-02-04T14:25:33;2.88;;;1.67;;
52858;SDS011;38721;53.098;6.596;2023-02-04T14:27:59;4.63;;;2.03;;
52858;SDS011;38721;53.098;6.596;2023-02-04T14:30:26;3.22;;;1.70;;
52858;SDS011;38721;53.098;6.596;2023-02-04T14:32:53;4.75;;;1.70;;
52858;SDS011;38721;53.098;6.596;2023-02-04T14:35:19;4.22;;;1.83;;
52858;SDS011;38721;53.098;6.596;2023-02-04T14:37:45;4.20;;;1.92;;
52858;SDS011;38721;53.098;6.596;2023-02-04T14:40:12;3.63;;;1.98;;
52858;SDS011;38721;53.098;6.596;2023-02-04T14:42:42;4.18;;;1.70;;
52858;SDS011;38721;53.098;6.596;2023-02-04T14:45:08;4.57;;;1.80;;
52858;SDS011;38721;53.098;6.596;2023-02-04T14:47:36;5.35;;;1.90;;
52858;SDS011;38721;53.098;6.596;2023-02-04T14:50:03;6.40;;;1.90;;
52858;SDS011;38721;53.098;6.596;2023-02-04T14:52:30;3.50;;;1.90;;